createdAt,value
2019-05-01T00:02:25.975Z,100241.72
2019-05-01T00:05:12.457Z,100241.47
2019-05-01T00:10:46.931Z,100232.88
2019-05-01T00:13:14.763Z,100227.33
2019-05-01T00:18:49.224Z,100232.23
2019-05-01T00:21:17.155Z,100232.23
2019-05-01T00:26:38.568Z,100230.08
2019-05-01T00:29:06.335Z,100225.23
2019-05-01T00:31:34.558Z,100220.88
2019-05-01T00:34:02.279Z,100213.14
2019-05-01T00:36:30.062Z,100213.14
2019-05-01T00:39:16.787Z,100214.77
2019-05-01T00:41:44.873Z,100214.77
2019-05-01T00:47:04.522Z,100204.27
2019-05-01T00:49:32.294Z,100204.27
2019-05-01T00:52:18.766Z,100195.87
2019-05-01T01:00:42.635Z,100190.74
2019-05-01T01:03:01.864Z,100191.11
2019-05-01T01:05:29.635Z,100181.59
2019-05-01T01:07:57.289Z,100181.22
2019-05-01T01:10:25.328Z,100182.35
2019-05-01T01:12:52.919Z,100182.35
2019-05-01T01:15:22.961Z,100175.81
2019-05-01T01:17:50.827Z,100175.81
2019-05-01T01:20:18.594Z,100178.47
2019-05-01T01:22:46.183Z,100174.11
2019-05-01T01:25:17.194Z,100169.11
2019-05-01T01:27:44.819Z,100169.11
2019-05-01T01:30:12.527Z,100166.92
2019-05-01T01:32:41.571Z,100162.87
2019-05-01T01:35:12.201Z,100155.59
2019-05-01T01:37:39.801Z,100155.59
2019-05-01T01:40:12.842Z,100155.44
2019-05-01T01:42:41.371Z,100157.89
2019-05-01T01:45:30.249Z,100161.70
2019-05-01T01:48:17.270Z,100156.34
2019-05-01T01:50:45.222Z,100151.80
2019-05-01T01:53:12.953Z,100151.80
2019-05-01T01:55:40.720Z,100144.16
2019-05-01T01:58:27.474Z,100149.82
2019-05-01T02:01:13.889Z,100153.80
2019-05-01T02:04:00.323Z,100147.17
2019-05-01T02:06:46.779Z,100148.13
2019-05-01T02:14:54.421Z,100142.17
2019-05-01T02:17:22.223Z,100142.17
2019-05-01T02:19:49.984Z,100147.92
2019-05-01T02:22:36.390Z,100150.20
2019-05-01T02:27:57.550Z,100147.84
2019-05-01T02:35:48.562Z,100150.28
2019-05-01T02:38:16.441Z,100151.81
2019-05-01T02:41:02.903Z,100150.70
2019-05-01T02:43:49.270Z,100144.73
2019-05-01T02:48:52.811Z,100143.67
2019-05-01T02:51:19.711Z,100139.16
2019-05-01T02:54:06.107Z,100142.47
2019-05-01T02:56:52.621Z,100136.23
2019-05-01T02:59:20.336Z,100135.11
2019-05-01T03:02:06.895Z,100132.09
2019-05-01T03:04:34.949Z,100132.09
2019-05-01T03:07:21.418Z,100134.06
2019-05-01T03:09:49.123Z,100130.09
2019-05-01T03:12:16.805Z,100130.09
2019-05-01T03:14:44.546Z,100134.91
2019-05-01T03:17:30.993Z,100128.55
2019-05-01T03:23:10.107Z,100127.23
2019-05-01T03:25:56.553Z,100122.72
2019-05-01T03:36:17.349Z,100125.91
2019-05-01T03:38:45.122Z,100125.91
2019-05-01T03:41:12.893Z,100125.75
2019-05-01T03:43:59.353Z,100121.00
2019-05-01T03:46:27.049Z,100112.32
2019-05-01T03:48:54.803Z,100116.38
2019-05-01T03:51:41.295Z,100109.39
2019-05-01T03:57:14.435Z,100097.75
2019-05-01T03:59:42.295Z,100100.19
2019-05-01T04:02:33.710Z,100100.19
2019-05-01T04:07:30.810Z,100107.81
2019-05-01T04:09:58.857Z,100112.69
2019-05-01T04:15:13.455Z,100119.13
2019-05-01T04:17:59.903Z,100122.61
2019-05-01T04:23:05.643Z,100112.22
2019-05-01T04:25:52.023Z,100107.47
2019-05-01T04:28:38.513Z,100107.47
2019-05-01T04:31:24.980Z,100103.64
2019-05-01T04:33:54.109Z,100103.64
2019-05-01T04:41:34.689Z,100110.30
2019-05-01T04:46:50.445Z,100110.25
2019-05-01T04:51:51.317Z,100106.30
2019-05-01T04:56:51.689Z,100107.84
2019-05-01T04:59:38.437Z,100119.52
2019-05-01T05:02:24.909Z,100121.01
2019-05-01T05:07:39.169Z,100112.14
2019-05-01T05:12:58.445Z,100127.15
2019-05-01T05:15:44.794Z,100130.67
2019-05-01T05:18:12.656Z,100130.67
2019-05-01T05:20:59.040Z,100125.22
2019-05-01T05:23:27.395Z,100132.13
2019-05-01T05:25:55.062Z,100132.63
2019-05-01T05:28:23.095Z,100132.63
2019-05-01T05:30:50.821Z,100134.52
2019-05-01T05:33:19.048Z,100134.52
2019-05-01T05:35:47.202Z,100131.41
2019-05-01T05:38:33.775Z,100131.41
2019-05-01T05:41:03.887Z,100130.70
2019-05-01T05:43:32.129Z,100131.07
2019-05-01T05:46:00.235Z,100133.96
2019-05-01T05:48:28.224Z,100133.96
2019-05-01T05:51:08.610Z,100141.94
2019-05-01T06:04:39.018Z,100139.30
2019-05-01T06:07:25.670Z,100138.38
2019-05-01T06:10:12.151Z,100138.38
2019-05-01T06:12:58.830Z,100136.44
2019-05-01T06:15:45.354Z,100136.44
2019-05-01T06:18:34.761Z,100134.67
2019-05-01T06:21:19.885Z,100137.13
2019-05-01T06:24:07.020Z,100135.20
2019-05-01T06:26:39.252Z,100135.20
2019-05-01T06:29:05.692Z,100131.22
2019-05-01T06:31:33.425Z,100138.13
2019-05-01T06:34:04.244Z,100131.39
2019-05-01T06:36:33.932Z,100131.39
2019-05-01T06:39:01.512Z,100138.63
2019-05-01T06:41:40.635Z,100137.49
2019-05-01T06:44:13.871Z,100137.49
2019-05-01T06:47:12.833Z,100133.98
2019-05-01T06:50:01.263Z,100133.98
2019-05-01T06:52:32.148Z,100131.11
2019-05-01T06:55:02.590Z,100131.39
2019-05-01T06:57:30.273Z,100130.84
2019-05-01T07:00:16.657Z,100128.92
2019-05-01T07:05:35.683Z,100128.10
2019-05-01T07:10:43.900Z,100128.25
2019-05-01T07:15:39.934Z,100131.39
2019-05-01T07:18:29.058Z,100131.39
2019-05-01T07:21:01.842Z,100127.90
2019-05-01T07:23:52.250Z,100118.72
2019-05-01T07:29:22.829Z,100127.81
2019-05-01T07:32:09.266Z,100116.42
2019-05-01T07:34:56.827Z,100116.42
2019-05-01T07:37:57.639Z,100119.08
2019-05-01T07:40:14.102Z,100119.08
2019-05-01T07:42:48.179Z,100115.93
2019-05-01T07:45:32.301Z,100118.36
2019-05-01T07:48:00.961Z,100112.77
2019-05-01T07:50:32.793Z,100112.77
2019-05-01T07:53:01.611Z,100117.39
2019-05-01T07:55:48.646Z,100116.77
2019-05-01T07:58:19.162Z,100116.77
2019-05-01T08:03:56.811Z,100119.68
2019-05-01T08:06:24.569Z,100117.25
2019-05-01T08:09:14.897Z,100117.59
2019-05-01T08:11:44.065Z,100122.95
2019-05-01T08:14:11.964Z,100122.95
2019-05-01T08:22:14.601Z,100120.85
2019-05-01T08:24:42.333Z,100120.85
2019-05-01T08:30:07.116Z,100130.78
2019-05-01T08:35:40.682Z,100130.19
2019-05-01T08:38:08.440Z,100128.28
2019-05-01T08:40:55.564Z,100124.28
2019-05-01T08:46:29.991Z,100131.76
2019-05-01T08:49:16.396Z,100130.91
2019-05-01T08:52:04.817Z,100129.66
2019-05-01T09:03:07.625Z,100125.14
2019-05-01T09:05:29.110Z,100123.04
2019-05-01T09:10:41.093Z,100116.30
2019-05-01T09:13:09.116Z,100120.98
2019-05-01T09:15:36.834Z,100111.55
2019-05-01T09:21:12.826Z,100105.93
2019-05-01T09:23:40.583Z,100105.93
2019-05-01T09:26:27.093Z,100100.96
2019-05-01T09:31:47.100Z,100103.33
2019-05-01T09:34:20.717Z,100103.97
2019-05-01T09:36:53.335Z,100104.72
2019-05-01T09:39:25.591Z,100105.13
2019-05-01T09:41:53.323Z,100105.48
2019-05-01T09:44:21.057Z,100105.48
2019-05-01T09:46:49.016Z,100100.31
2019-05-01T09:49:20.067Z,100098.28
2019-05-01T09:52:03.116Z,100097.67
2019-05-01T09:54:47.915Z,100097.67
2019-05-01T09:57:15.903Z,100099.70
2019-05-01T09:59:43.612Z,100096.64
2019-05-01T10:02:14.043Z,100092.14
2019-05-01T10:04:42.046Z,100088.80
2019-05-01T10:07:14.206Z,100093.53
2019-05-01T10:09:42.222Z,100093.53
2019-05-01T10:12:11.521Z,100079.56
2019-05-01T10:14:39.543Z,100079.56
2019-05-01T10:17:07.313Z,100072.05
2019-05-01T10:19:37.892Z,100073.41
2019-05-01T10:22:05.653Z,100073.41
2019-05-01T10:24:37.675Z,100068.04
2019-05-01T10:27:06.147Z,100062.84
2019-05-01T10:29:56.857Z,100061.64
2019-05-01T10:32:46.665Z,100054.88
2019-05-01T10:35:42.500Z,100048.90
2019-05-01T10:38:09.467Z,100047.00
2019-05-01T10:40:34.443Z,100047.00
2019-05-01T10:43:09.858Z,100038.37
2019-05-01T10:45:37.644Z,100038.20
2019-05-01T10:48:05.344Z,100036.55
2019-05-01T10:50:33.337Z,100036.55
2019-05-01T10:53:01.116Z,100033.86
2019-05-01T10:55:33.076Z,100025.55
2019-05-01T10:58:04.579Z,100030.12
2019-05-01T11:00:41.260Z,100024.89
2019-05-01T11:03:09.292Z,100020.69
2019-05-01T11:05:40.806Z,100023.45
2019-05-01T11:08:09.678Z,100010.02
2019-05-01T11:10:38.057Z,100010.02
2019-05-01T11:13:07.933Z,100004.50
2019-05-01T11:15:35.824Z,100002.64
2019-05-01T11:18:05.684Z,100002.43
2019-05-01T11:20:33.383Z,99997.52
2019-05-01T11:23:01.054Z,99998.41
2019-05-01T11:25:36.597Z,99998.41
2019-05-01T11:28:04.457Z,99988.95
2019-05-01T11:30:32.227Z,99980.88
2019-05-01T11:33:30.918Z,99978.03
2019-05-01T11:36:29.394Z,99970.91
2019-05-01T11:39:21.225Z,99964.00
2019-05-01T11:41:59.574Z,99964.00
2019-05-01T11:44:30.027Z,99967.77
2019-05-01T11:46:57.762Z,99958.59
2019-05-01T11:49:25.452Z,99950.43
2019-05-01T11:51:53.426Z,99950.43
2019-05-01T11:54:24.183Z,99953.91
2019-05-01T11:56:51.797Z,99953.91
2019-05-01T11:59:19.781Z,99952.81
2019-05-01T12:01:52.018Z,99943.38
2019-05-01T12:04:19.777Z,99937.08
2019-05-01T12:06:47.779Z,99937.08
2019-05-01T12:09:15.866Z,99933.23
2019-05-01T12:11:45.102Z,99930.73
2019-05-01T12:14:13.546Z,99924.34
2019-05-01T12:16:58.750Z,99923.27
2019-05-01T12:19:26.927Z,99923.27
2019-05-01T12:21:57.227Z,99923.45
2019-05-01T12:24:25.652Z,99923.83
2019-05-01T12:26:53.725Z,99919.73
2019-05-01T12:29:21.352Z,99913.73
2019-05-01T12:31:50.966Z,99912.69
2019-05-01T12:34:25.793Z,99907.73
2019-05-01T12:37:12.265Z,99903.53
2019-05-01T12:39:40.246Z,99896.48
2019-05-01T12:42:07.985Z,99891.45
2019-05-01T12:44:37.118Z,99891.45
2019-05-01T12:47:11.651Z,99887.19
2019-05-01T12:49:39.340Z,99887.19
2019-05-01T12:52:11.705Z,99881.67
2019-05-01T12:54:48.675Z,99881.09
2019-05-01T12:57:20.018Z,99878.32
2019-05-01T13:00:07.905Z,99875.98
2019-05-01T13:02:29.341Z,99871.51
2019-05-01T13:04:58.366Z,99870.73
2019-05-01T13:07:26.115Z,99861.41
2019-05-01T13:09:54.097Z,99862.02
2019-05-01T13:12:25.455Z,99860.45
2019-05-01T13:14:52.882Z,99865.52
2019-05-01T13:17:20.945Z,99861.69
2019-05-01T13:19:53.924Z,99857.48
2019-05-01T13:22:23.943Z,99859.45
2019-05-01T13:24:52.094Z,99855.94
2019-05-01T13:27:28.432Z,99857.12
2019-05-01T13:30:09.605Z,99850.59
2019-05-01T13:32:48.036Z,99845.37
2019-05-01T13:35:15.698Z,99845.37
2019-05-01T13:37:43.838Z,99846.80
2019-05-01T13:40:11.609Z,99841.07
2019-05-01T13:42:39.635Z,99844.70
2019-05-01T13:45:07.760Z,99835.45
2019-05-01T13:47:37.421Z,99834.80
2019-05-01T13:50:05.087Z,99832.42
2019-05-01T13:52:36.236Z,99830.78
2019-05-01T13:55:03.932Z,99822.98
2019-05-01T13:57:31.686Z,99827.73
2019-05-01T13:59:59.695Z,99821.78
2019-05-01T14:02:27.505Z,99814.28
2019-05-01T14:04:57.545Z,99810.70
2019-05-01T14:07:25.888Z,99810.70
2019-05-01T14:09:53.617Z,99810.09
2019-05-01T14:12:24.153Z,99806.64
2019-05-01T14:14:52.242Z,99806.64
2019-05-01T14:17:27.385Z,99803.08
2019-05-01T14:20:07.506Z,99800.44
2019-05-01T14:22:44.579Z,99804.18
2019-05-01T14:25:12.751Z,99799.84
2019-05-01T14:27:44.835Z,99799.84
2019-05-01T14:30:15.148Z,99787.35
2019-05-01T14:32:42.811Z,99787.46
2019-05-01T14:35:13.057Z,99788.19
2019-05-01T14:37:43.744Z,99789.22
2019-05-01T14:40:11.882Z,99782.44
2019-05-01T14:42:39.514Z,99784.55
2019-05-01T14:45:07.665Z,99771.95
2019-05-01T14:47:37.855Z,99768.02
2019-05-01T14:50:06.694Z,99766.27
2019-05-01T14:52:37.705Z,99771.72
2019-05-01T14:55:07.487Z,99771.72
2019-05-01T14:57:36.131Z,99768.42
2019-05-01T15:00:04.169Z,99762.03
2019-05-01T15:02:37.953Z,99764.05
2019-05-01T15:05:05.624Z,99754.02
2019-05-01T15:07:43.374Z,99749.33
2019-05-01T15:10:03.198Z,99753.75
2019-05-01T15:12:37.280Z,99751.19
2019-05-01T15:15:14.338Z,99750.95
2019-05-01T15:17:48.904Z,99750.95
2019-05-01T15:20:21.632Z,99751.00
2019-05-01T15:22:52.458Z,99749.64
2019-05-01T15:25:22.547Z,99748.18
2019-05-01T15:27:56.530Z,99748.34
2019-05-01T15:30:24.359Z,99752.34
2019-05-01T15:32:52.523Z,99751.43
2019-05-01T15:35:20.622Z,99746.32
2019-05-01T15:37:56.527Z,99751.86
2019-05-01T15:40:29.805Z,99753.11
2019-05-01T15:43:02.599Z,99751.92
2019-05-01T15:45:30.365Z,99743.28
2019-05-01T15:47:58.125Z,99740.97
2019-05-01T15:50:28.044Z,99737.59
2019-05-01T15:52:57.513Z,99743.19
2019-05-01T15:55:31.239Z,99731.90
2019-05-01T15:57:59.293Z,99731.90
2019-05-01T16:00:29.000Z,99734.16
2019-05-01T16:02:56.742Z,99731.88
2019-05-01T16:05:24.715Z,99721.95
2019-05-01T16:07:52.357Z,99721.95
2019-05-01T16:10:24.288Z,99723.23
2019-05-01T16:12:57.309Z,99719.42
2019-05-01T16:15:30.243Z,99713.66
2019-05-01T16:17:59.481Z,99713.08
2019-05-01T16:20:34.213Z,99719.59
2019-05-01T16:23:01.951Z,99715.19
2019-05-01T16:25:34.039Z,99715.62
2019-05-01T16:28:01.765Z,99711.47
2019-05-01T16:30:29.419Z,99714.84
2019-05-01T16:32:57.460Z,99713.94
2019-05-01T16:35:25.151Z,99713.34
2019-05-01T16:37:52.912Z,99713.86
2019-05-01T16:40:33.763Z,99716.81
2019-05-01T16:43:02.525Z,99711.81
2019-05-01T16:45:30.530Z,99711.81
2019-05-01T16:47:58.645Z,99714.11
2019-05-01T16:50:35.065Z,99711.94
2019-05-01T16:53:00.716Z,99707.30
2019-05-01T16:55:28.474Z,99707.87
2019-05-01T16:57:57.357Z,99703.66
2019-05-01T17:00:29.894Z,99718.55
2019-05-01T17:03:21.285Z,99699.92
2019-05-01T17:06:02.169Z,99704.53
2019-05-01T17:08:58.441Z,99697.06
2019-05-01T17:11:32.907Z,99695.73
2019-05-01T17:14:00.849Z,99695.73
2019-05-01T17:16:30.342Z,99695.75
2019-05-01T17:19:05.535Z,99695.75
2019-05-01T17:21:32.117Z,99695.09
2019-05-01T17:24:02.359Z,99692.24
2019-05-01T17:26:30.223Z,99687.87
2019-05-01T17:28:58.343Z,99687.87
2019-05-01T17:31:27.481Z,99689.39
2019-05-01T17:33:55.618Z,99685.52
2019-05-01T17:36:27.307Z,99688.85
2019-05-01T17:38:55.269Z,99681.97
2019-05-01T17:41:27.250Z,99687.98
2019-05-01T17:43:59.896Z,99691.97
2019-05-01T17:46:30.074Z,99692.25
2019-05-01T17:48:57.760Z,99692.25
2019-05-01T17:51:25.500Z,99696.75
2019-05-01T17:53:56.415Z,99691.53
2019-05-01T17:56:28.290Z,99697.88
2019-05-01T17:58:53.397Z,99695.13
2019-05-01T18:01:39.061Z,99701.91
2019-05-01T18:04:37.630Z,99701.91
2019-05-01T18:07:07.640Z,99700.96
2019-05-01T18:09:37.869Z,99699.67
2019-05-01T18:12:08.236Z,99699.89
2019-05-01T18:14:36.321Z,99695.44
2019-05-01T18:17:04.699Z,99695.44
2019-05-01T18:19:33.567Z,99698.23
2019-05-01T18:22:18.351Z,99698.31
2019-05-01T18:25:16.733Z,99701.41
2019-05-01T18:28:09.497Z,99699.70
2019-05-01T18:30:40.161Z,99699.70
2019-05-01T18:33:09.797Z,99701.52
2019-05-01T18:35:40.581Z,99701.52
2019-05-01T18:38:34.107Z,99702.08
2019-05-01T18:41:20.324Z,99698.28
2019-05-01T18:43:49.627Z,99708.42
2019-05-01T18:46:26.236Z,99701.13
2019-05-01T18:48:54.207Z,99701.38
2019-05-01T18:51:21.861Z,99696.78
2019-05-01T18:53:57.429Z,99702.20
2019-05-01T18:56:21.705Z,99700.04
2019-05-01T18:58:49.475Z,99699.28
2019-05-01T19:01:17.177Z,99699.28
2019-05-01T19:03:45.216Z,99698.05
2019-05-01T19:06:12.808Z,99704.42
2019-05-01T19:09:15.056Z,99704.42
2019-05-01T19:11:29.084Z,99702.31
2019-05-01T19:19:04.091Z,99700.62
2019-05-01T19:24:24.834Z,99705.77
2019-05-01T19:26:52.601Z,99708.53
2019-05-01T19:29:20.608Z,99707.17
2019-05-01T19:31:49.399Z,99702.73
2019-05-01T19:34:17.178Z,99702.55
2019-05-01T19:36:54.293Z,99702.55
2019-05-01T19:39:22.331Z,99702.25
2019-05-01T19:41:54.674Z,99700.43
2019-05-01T19:44:22.549Z,99700.43
2019-05-01T19:46:54.882Z,99697.63
2019-05-01T19:49:29.466Z,99697.63
2019-05-01T19:54:29.804Z,99697.95
2019-05-01T19:56:57.054Z,99690.23
2019-05-01T19:59:26.750Z,99701.77
2019-05-01T20:02:17.315Z,99701.77
2019-05-01T20:05:01.297Z,99704.21
2019-05-01T20:07:51.145Z,99703.30
2019-05-01T20:10:17.130Z,99699.71
2019-05-01T20:13:17.943Z,99697.50
2019-05-01T20:15:53.963Z,99697.50
2019-05-01T20:18:40.457Z,99698.07
2019-05-01T20:21:26.869Z,99698.48
2019-05-01T20:24:13.366Z,99696.02
2019-05-01T20:26:41.135Z,99690.70
2019-05-01T20:29:27.620Z,99690.89
2019-05-01T20:40:10.368Z,99690.84
2019-05-01T20:45:05.378Z,99689.67
2019-05-01T20:47:35.264Z,99684.91
2019-05-01T20:50:05.139Z,99683.88
2019-05-01T20:52:33.104Z,99678.64
2019-05-01T20:57:55.370Z,99680.37
2019-05-01T21:03:18.151Z,99676.59
2019-05-01T21:06:16.338Z,99674.92
2019-05-01T21:09:08.305Z,99674.92
2019-05-01T21:14:15.210Z,99671.39
2019-05-01T21:19:35.310Z,99661.24
2019-05-01T21:22:04.047Z,99663.20
2019-05-01T21:24:31.772Z,99663.20
2019-05-01T21:27:18.246Z,99664.53
2019-05-01T21:32:26.107Z,99664.45
2019-05-01T21:34:50.675Z,99664.45
2019-05-01T21:37:18.300Z,99658.53
2019-05-01T21:39:46.189Z,99657.81
2019-05-01T21:42:32.719Z,99657.58
2019-05-01T21:45:00.362Z,99657.58
2019-05-01T21:47:29.974Z,99658.82
2019-05-01T21:50:17.790Z,99656.90
2019-05-01T21:58:37.391Z,99653.77
2019-05-01T22:01:06.358Z,99657.40
2019-05-01T22:03:35.886Z,99657.40
2019-05-01T22:06:03.644Z,99656.69
2019-05-01T22:08:34.626Z,99655.00
2019-05-01T22:11:21.137Z,99656.33
2019-05-01T22:19:20.313Z,99657.40
2019-05-01T22:22:07.042Z,99656.42
2019-05-01T22:24:43.158Z,99656.42
2019-05-01T22:27:17.663Z,99656.30
2019-05-01T22:32:43.057Z,99651.69
2019-05-01T22:35:29.530Z,99657.37
2019-05-01T22:38:16.163Z,99657.37
2019-05-01T22:41:06.691Z,99652.55
2019-05-01T22:43:50.677Z,99647.70
2019-05-01T22:48:57.076Z,99644.95
2019-05-01T22:51:25.033Z,99646.40
2019-05-01T22:54:11.508Z,99642.52
2019-05-01T22:56:39.245Z,99642.52
2019-05-01T23:04:37.370Z,99637.81
2019-05-01T23:07:23.786Z,99639.38
2019-05-01T23:09:51.514Z,99638.34
2019-05-01T23:12:38.208Z,99632.89
2019-05-01T23:15:25.032Z,99639.30
2019-05-01T23:23:19.461Z,99633.89
2019-05-01T23:25:47.494Z,99633.89
2019-05-01T23:28:15.359Z,99632.31
2019-05-01T23:33:29.769Z,99625.67
2019-05-01T23:35:58.546Z,99620.97
2019-05-01T23:46:05.995Z,99614.08
2019-05-01T23:48:33.760Z,99616.03
2019-05-01T23:51:01.412Z,99615.91
2019-05-01T23:53:49.330Z,99613.37
2019-05-01T23:56:36.385Z,99619.06
